sensor_id;sensor_type;location;lat;lon;timestamp;P1;durP1;ratioP1;P2;durP2;ratioP2
5811;SDS011;2932;52.400;9.558;2023-08-01T00:01:06;2.15;;;0.70;;
5811;SDS011;2932;52.400;9.558;2023-08-01T00:03:31;3.10;;;0.60;;
5811;SDS011;2932;52.400;9.558;2023-08-01T00:05:58;1.05;;;0.70;;
5811;SDS011;2932;52.400;9.558;2023-08-01T00:08:23;1.85;;;0.50;;
5811;SDS011;2932;52.400;9.558;2023-08-01T00:10:48;0.88;;;0.80;;
5811;SDS011;2932;52.400;9.558;2023-08-01T00:13:14;1.48;;;0.60;;
5811;SDS011;2932;52.400;9.558;2023-08-01T00:15:39;1.67;;;1.23;;
5811;SDS011;2932;52.400;9.558;2023-08-01T00:18:04;0.70;;;0.60;;
5811;SDS011;2932;52.400;9.558;2023-08-01T00:20:29;1.15;;;0.60;;
5811;SDS011;2932;52.400;9.558;2023-08-01T00:22:55;2.53;;;0.80;;
5811;SDS011;2932;52.400;9.558;2023-08-01T00:25:20;0.80;;;0.70;;
5811;SDS011;2932;52.400;9.558;2023-08-01T00:27:46;0.70;;;0.70;;
5811;SDS011;2932;52.400;9.558;2023-08-01T00:30:11;1.77;;;1.02;;
5811;SDS011;2932;52.400;9.558;2023-08-01T00:32:37;3.28;;;0.80;;
5811;SDS011;2932;52.400;9.558;2023-08-01T00:35:03;1.92;;;0.80;;
5811;SDS011;2932;52.400;9.558;2023-08-01T00:37:28;10.82;;;1.02;;
5811;SDS011;2932;52.400;9.558;2023-08-01T00:39:54;1.50;;;0.77;;
5811;SDS011;2932;52.400;9.558;2023-08-01T00:42:19;1.35;;;0.80;;
5811;SDS011;2932;52.400;9.558;2023-08-01T00:44:44;0.70;;;0.70;;
5811;SDS011;2932;52.400;9.558;2023-08-01T00:47:12;0.73;;;0.73;;
5811;SDS011;2932;52.400;9.558;2023-08-01T00:49:38;1.75;;;0.80;;
5811;SDS011;2932;52.400;9.558;2023-08-01T00:52:03;1.25;;;0.90;;
5811;SDS011;2932;52.400;9.558;2023-08-01T00:54:30;1.67;;;0.68;;
5811;SDS011;2932;52.400;9.558;2023-08-01T00:57:00;1.60;;;0.80;;
5811;SDS011;2932;52.400;9.558;2023-08-01T00:59:27;3.50;;;0.80;;
5811;SDS011;2932;52.400;9.558;2023-08-01T01:01:52;2.63;;;0.85;;
5811;SDS011;2932;52.400;9.558;2023-08-01T01:04:17;0.80;;;0.80;;
5811;SDS011;2932;52.400;9.558;2023-08-01T01:07:05;2.78;;;0.90;;
5811;SDS011;2932;52.400;9.558;2023-08-01T01:09:30;1.30;;;0.80;;
5811;SDS011;2932;52.400;9.558;2023-08-01T01:11:58;2.60;;;0.70;;
5811;SDS011;2932;52.400;9.558;2023-08-01T01:14:28;1.17;;;0.75;;
5811;SDS011;2932;52.400;9.558;2023-08-01T01:16:53;0.63;;;0.63;;
5811;SDS011;2932;52.400;9.558;2023-08-01T01:19:19;1.10;;;1.10;;
5811;SDS011;2932;52.400;9.558;2023-08-01T01:21:44;0.90;;;0.90;;
5811;SDS011;2932;52.400;9.558;2023-08-01T01:24:11;2.10;;;1.15;;
5811;SDS011;2932;52.400;9.558;2023-08-01T01:26:40;1.42;;;0.90;;
5811;SDS011;2932;52.400;9.558;2023-08-01T01:29:06;1.13;;;0.80;;
5811;SDS011;2932;52.400;9.558;2023-08-01T01:31:33;1.50;;;0.88;;
5811;SDS011;2932;52.400;9.558;2023-08-01T01:33:59;3.30;;;1.85;;
5811;SDS011;2932;52.400;9.558;2023-08-01T01:36:26;0.90;;;0.90;;
5811;SDS011;2932;52.400;9.558;2023-08-01T01:38:52;2.25;;;0.90;;
5811;SDS011;2932;52.400;9.558;2023-08-01T01:41:17;1.52;;;1.00;;
5811;SDS011;2932;52.400;9.558;2023-08-01T01:43:42;2.38;;;0.93;;
5811;SDS011;2932;52.400;9.558;2023-08-01T01:46:09;3.17;;;1.00;;
5811;SDS011;2932;52.400;9.558;2023-08-01T01:48:35;0.70;;;0.70;;
5811;SDS011;2932;52.400;9.558;2023-08-01T01:51:00;1.30;;;1.08;;
5811;SDS011;2932;52.400;9.558;2023-08-01T01:53:25;2.00;;;0.90;;
5811;SDS011;2932;52.400;9.558;2023-08-01T01:55:50;1.27;;;0.80;;
5811;SDS011;2932;52.400;9.558;2023-08-01T01:58:16;2.20;;;0.95;;
5811;SDS011;2932;52.400;9.558;2023-08-01T02:00:41;1.73;;;0.93;;
5811;SDS011;2932;52.400;9.558;2023-08-01T02:03:06;1.80;;;0.85;;
5811;SDS011;2932;52.400;9.558;2023-08-01T02:05:35;1.25;;;1.05;;
5811;SDS011;2932;52.400;9.558;2023-08-01T02:08:00;2.40;;;1.08;;
5811;SDS011;2932;52.400;9.558;2023-08-01T02:10:26;1.95;;;1.10;;
5811;SDS011;2932;52.400;9.558;2023-08-01T02:12:51;1.10;;;1.10;;
5811;SDS011;2932;52.400;9.558;2023-08-01T02:15:16;4.15;;;1.50;;
5811;SDS011;2932;52.400;9.558;2023-08-01T02:17:42;2.03;;;1.13;;
5811;SDS011;2932;52.400;9.558;2023-08-01T02:20:07;3.80;;;1.20;;
5811;SDS011;2932;52.400;9.558;2023-08-01T02:22:33;2.08;;;1.40;;
5811;SDS011;2932;52.400;9.558;2023-08-01T02:24:58;1.30;;;0.90;;
5811;SDS011;2932;52.400;9.558;2023-08-01T02:27:23;3.25;;;0.90;;
5811;SDS011;2932;52.400;9.558;2023-08-01T02:29:49;0.80;;;0.80;;
5811;SDS011;2932;52.400;9.558;2023-08-01T02:32:15;2.75;;;1.00;;
5811;SDS011;2932;52.400;9.558;2023-08-01T02:34:41;0.90;;;0.90;;
5811;SDS011;2932;52.400;9.558;2023-08-01T02:37:06;1.65;;;1.45;;
5811;SDS011;2932;52.400;9.558;2023-08-01T02:39:31;3.75;;;1.05;;
5811;SDS011;2932;52.400;9.558;2023-08-01T02:41:57;1.80;;;0.90;;
5811;SDS011;2932;52.400;9.558;2023-08-01T02:44:22;1.02;;;0.90;;
5811;SDS011;2932;52.400;9.558;2023-08-01T02:46:47;2.67;;;1.00;;
5811;SDS011;2932;52.400;9.558;2023-08-01T02:49:13;2.55;;;0.75;;
5811;SDS011;2932;52.400;9.558;2023-08-01T02:51:38;1.02;;;0.80;;
5811;SDS011;2932;52.400;9.558;2023-08-01T02:54:03;1.40;;;0.82;;
5811;SDS011;2932;52.400;9.558;2023-08-01T02:56:28;1.20;;;0.80;;
5811;SDS011;2932;52.400;9.558;2023-08-01T02:58:54;5.05;;;1.10;;
5811;SDS011;2932;52.400;9.558;2023-08-01T03:01:20;1.10;;;0.60;;
5811;SDS011;2932;52.400;9.558;2023-08-01T03:03:46;2.92;;;0.60;;
5811;SDS011;2932;52.400;9.558;2023-08-01T03:06:11;1.95;;;0.80;;
5811;SDS011;2932;52.400;9.558;2023-08-01T03:08:37;1.35;;;0.70;;
5811;SDS011;2932;52.400;9.558;2023-08-01T03:11:03;2.08;;;0.80;;
5811;SDS011;2932;52.400;9.558;2023-08-01T03:13:28;2.50;;;0.90;;
5811;SDS011;2932;52.400;9.558;2023-08-01T03:15:53;0.60;;;0.60;;
5811;SDS011;2932;52.400;9.558;2023-08-01T03:18:18;1.92;;;0.50;;
5811;SDS011;2932;52.400;9.558;2023-08-01T03:20:44;1.92;;;0.65;;
5811;SDS011;2932;52.400;9.558;2023-08-01T03:23:09;2.30;;;0.85;;
5811;SDS011;2932;52.400;9.558;2023-08-01T03:25:34;0.60;;;0.60;;
5811;SDS011;2932;52.400;9.558;2023-08-01T03:28:00;1.02;;;0.80;;
5811;SDS011;2932;52.400;9.558;2023-08-01T03:30:25;2.38;;;0.70;;
5811;SDS011;2932;52.400;9.558;2023-08-01T03:32:51;0.93;;;0.55;;
5811;SDS011;2932;52.400;9.558;2023-08-01T03:35:16;1.65;;;0.60;;
5811;SDS011;2932;52.400;9.558;2023-08-01T03:37:41;1.92;;;0.60;;
5811;SDS011;2932;52.400;9.558;2023-08-01T03:40:07;1.73;;;0.70;;
5811;SDS011;2932;52.400;9.558;2023-08-01T03:42:34;0.73;;;0.60;;
5811;SDS011;2932;52.400;9.558;2023-08-01T03:44:59;1.35;;;0.60;;
5811;SDS011;2932;52.400;9.558;2023-08-01T03:47:25;0.82;;;0.57;;
5811;SDS011;2932;52.400;9.558;2023-08-01T03:49:50;1.20;;;0.70;;
5811;SDS011;2932;52.400;9.558;2023-08-01T03:52:15;1.42;;;0.65;;
5811;SDS011;2932;52.400;9.558;2023-08-01T03:54:41;1.25;;;0.77;;
5811;SDS011;2932;52.400;9.558;2023-08-01T03:57:06;0.57;;;0.40;;
5811;SDS011;2932;52.400;9.558;2023-08-01T03:59:31;1.30;;;0.95;;
5811;SDS011;2932;52.400;9.558;2023-08-01T04:01:57;0.73;;;0.60;;
5811;SDS011;2932;52.400;9.558;2023-08-01T04:04:22;1.83;;;0.90;;
5811;SDS011;2932;52.400;9.558;2023-08-01T04:06:47;1.48;;;0.95;;
5811;SDS011;2932;52.400;9.558;2023-08-01T04:09:13;2.35;;;0.75;;
5811;SDS011;2932;52.400;9.558;2023-08-01T04:11:38;0.93;;;0.63;;
5811;SDS011;2932;52.400;9.558;2023-08-01T04:14:03;1.48;;;0.50;;
5811;SDS011;2932;52.400;9.558;2023-08-01T04:16:29;2.13;;;1.25;;
5811;SDS011;2932;52.400;9.558;2023-08-01T04:18:54;4.25;;;0.57;;
5811;SDS011;2932;52.400;9.558;2023-08-01T04:21:19;1.55;;;0.50;;
5811;SDS011;2932;52.400;9.558;2023-08-01T04:23:45;0.60;;;0.60;;
5811;SDS011;2932;52.400;9.558;2023-08-01T04:26:10;1.33;;;0.60;;
5811;SDS011;2932;52.400;9.558;2023-08-01T04:28:35;1.42;;;0.63;;
5811;SDS011;2932;52.400;9.558;2023-08-01T04:31:01;2.28;;;0.65;;
5811;SDS011;2932;52.400;9.558;2023-08-01T04:33:26;1.83;;;0.70;;
5811;SDS011;2932;52.400;9.558;2023-08-01T04:35:52;2.67;;;0.70;;
5811;SDS011;2932;52.400;9.558;2023-08-01T04:38:17;2.53;;;1.17;;
5811;SDS011;2932;52.400;9.558;2023-08-01T04:40:43;1.95;;;0.70;;
5811;SDS011;2932;52.400;9.558;2023-08-01T04:43:08;2.53;;;0.70;;
5811;SDS011;2932;52.400;9.558;2023-08-01T04:45:34;3.97;;;0.63;;
5811;SDS011;2932;52.400;9.558;2023-08-01T04:48:00;1.63;;;0.73;;
5811;SDS011;2932;52.400;9.558;2023-08-01T04:50:25;1.65;;;0.60;;
5811;SDS011;2932;52.400;9.558;2023-08-01T04:52:50;0.60;;;0.60;;
5811;SDS011;2932;52.400;9.558;2023-08-01T04:55:15;1.25;;;1.15;;
5811;SDS011;2932;52.400;9.558;2023-08-01T04:57:41;0.90;;;0.90;;
5811;SDS011;2932;52.400;9.558;2023-08-01T05:00:08;1.40;;;0.60;;
5811;SDS011;2932;52.400;9.558;2023-08-01T05:02:36;0.80;;;0.68;;
5811;SDS011;2932;52.400;9.558;2023-08-01T05:05:01;1.05;;;0.70;;
5811;SDS011;2932;52.400;9.558;2023-08-01T05:07:26;2.20;;;1.05;;
5811;SDS011;2932;52.400;9.558;2023-08-01T05:12:19;2.40;;;1.00;;
5811;SDS011;2932;52.400;9.558;2023-08-01T05:14:45;1.65;;;1.10;;
5811;SDS011;2932;52.400;9.558;2023-08-01T05:17:10;1.25;;;0.80;;
5811;SDS011;2932;52.400;9.558;2023-08-01T05:19:35;2.20;;;1.23;;
5811;SDS011;2932;52.400;9.558;2023-08-01T05:22:01;1.40;;;1.00;;
5811;SDS011;2932;52.400;9.558;2023-08-01T05:24:26;1.60;;;0.82;;
5811;SDS011;2932;52.400;9.558;2023-08-01T05:26:52;2.20;;;0.88;;
5811;SDS011;2932;52.400;9.558;2023-08-01T05:29:17;2.42;;;0.80;;
5811;SDS011;2932;52.400;9.558;2023-08-01T05:31:42;1.13;;;0.63;;
5811;SDS011;2932;52.400;9.558;2023-08-01T05:34:08;1.40;;;1.00;;
5811;SDS011;2932;52.400;9.558;2023-08-01T05:36:33;1.42;;;1.00;;
5811;SDS011;2932;52.400;9.558;2023-08-01T05:38:58;2.53;;;1.00;;
5811;SDS011;2932;52.400;9.558;2023-08-01T05:41:23;1.00;;;0.90;;
5811;SDS011;2932;52.400;9.558;2023-08-01T05:43:49;2.80;;;0.80;;
5811;SDS011;2932;52.400;9.558;2023-08-01T05:46:14;1.17;;;1.08;;
5811;SDS011;2932;52.400;9.558;2023-08-01T05:48:40;1.20;;;1.10;;
5811;SDS011;2932;52.400;9.558;2023-08-01T05:51:06;2.15;;;1.30;;
5811;SDS011;2932;52.400;9.558;2023-08-01T05:53:31;3.20;;;1.50;;
5811;SDS011;2932;52.400;9.558;2023-08-01T05:55:57;1.38;;;1.25;;
5811;SDS011;2932;52.400;9.558;2023-08-01T05:58:22;2.38;;;1.48;;
5811;SDS011;2932;52.400;9.558;2023-08-01T06:00:48;2.10;;;1.70;;
5811;SDS011;2932;52.400;9.558;2023-08-01T06:03:13;2.47;;;1.95;;
5811;SDS011;2932;52.400;9.558;2023-08-01T06:05:39;2.15;;;1.95;;
5811;SDS011;2932;52.400;9.558;2023-08-01T06:08:05;4.60;;;2.30;;
5811;SDS011;2932;52.400;9.558;2023-08-01T06:10:32;4.60;;;2.47;;
5811;SDS011;2932;52.400;9.558;2023-08-01T06:12:57;3.80;;;2.40;;
5811;SDS011;2932;52.400;9.558;2023-08-01T06:15:22;2.45;;;2.10;;
5811;SDS011;2932;52.400;9.558;2023-08-01T06:17:48;5.68;;;2.45;;
5811;SDS011;2932;52.400;9.558;2023-08-01T06:20:13;4.97;;;2.50;;
5811;SDS011;2932;52.400;9.558;2023-08-01T06:22:38;2.60;;;2.33;;
5811;SDS011;2932;52.400;9.558;2023-08-01T06:25:04;4.60;;;2.20;;
5811;SDS011;2932;52.400;9.558;2023-08-01T06:27:29;3.10;;;2.63;;
5811;SDS011;2932;52.400;9.558;2023-08-01T06:29:55;7.65;;;2.50;;
5811;SDS011;2932;52.400;9.558;2023-08-01T06:32:20;3.53;;;2.30;;
5811;SDS011;2932;52.400;9.558;2023-08-01T06:34:45;5.50;;;2.65;;
5811;SDS011;2932;52.400;9.558;2023-08-01T06:37:11;5.57;;;2.72;;
5811;SDS011;2932;52.400;9.558;2023-08-01T06:39:36;4.50;;;2.80;;
5811;SDS011;2932;52.400;9.558;2023-08-01T06:42:01;5.32;;;2.80;;
5811;SDS011;2932;52.400;9.558;2023-08-01T06:44:27;3.78;;;3.13;;
5811;SDS011;2932;52.400;9.558;2023-08-01T06:46:53;3.88;;;3.13;;
5811;SDS011;2932;52.400;9.558;2023-08-01T06:49:18;3.88;;;3.15;;
5811;SDS011;2932;52.400;9.558;2023-08-01T06:51:43;5.75;;;3.40;;
5811;SDS011;2932;52.400;9.558;2023-08-01T06:54:09;5.28;;;4.10;;
5811;SDS011;2932;52.400;9.558;2023-08-01T06:56:34;5.30;;;3.40;;
5811;SDS011;2932;52.400;9.558;2023-08-01T06:58:59;7.35;;;3.42;;
5811;SDS011;2932;52.400;9.558;2023-08-01T07:01:25;6.32;;;3.22;;
5811;SDS011;2932;52.400;9.558;2023-08-01T07:03:50;6.25;;;3.30;;
5811;SDS011;2932;52.400;9.558;2023-08-01T07:06:19;5.95;;;3.67;;
5811;SDS011;2932;52.400;9.558;2023-08-01T07:08:44;6.47;;;3.72;;
5811;SDS011;2932;52.400;9.558;2023-08-01T07:11:09;4.78;;;3.33;;
5811;SDS011;2932;52.400;9.558;2023-08-01T07:13:35;7.50;;;3.97;;
5811;SDS011;2932;52.400;9.558;2023-08-01T07:16:00;7.20;;;4.57;;
5811;SDS011;2932;52.400;9.558;2023-08-01T07:18:25;5.65;;;3.40;;
5811;SDS011;2932;52.400;9.558;2023-08-01T07:21:00;6.35;;;4.07;;
5811;SDS011;2932;52.400;9.558;2023-08-01T07:23:27;7.18;;;4.38;;
5811;SDS011;2932;52.400;9.558;2023-08-01T07:25:52;7.53;;;3.83;;
5811;SDS011;2932;52.400;9.558;2023-08-01T07:28:18;4.43;;;4.03;;
5811;SDS011;2932;52.400;9.558;2023-08-01T07:30:43;5.63;;;4.18;;
5811;SDS011;2932;52.400;9.558;2023-08-01T07:33:08;6.13;;;3.88;;
5811;SDS011;2932;52.400;9.558;2023-08-01T07:35:34;6.70;;;4.20;;
5811;SDS011;2932;52.400;9.558;2023-08-01T07:37:59;6.60;;;4.30;;
5811;SDS011;2932;52.400;9.558;2023-08-01T07:40:24;6.82;;;4.47;;
5811;SDS011;2932;52.400;9.558;2023-08-01T07:42:50;6.93;;;4.32;;
5811;SDS011;2932;52.400;9.558;2023-08-01T07:45:17;8.73;;;4.25;;
5811;SDS011;2932;52.400;9.558;2023-08-01T07:47:43;6.57;;;4.88;;
5811;SDS011;2932;52.400;9.558;2023-08-01T07:50:09;7.35;;;4.00;;
5811;SDS011;2932;52.400;9.558;2023-08-01T07:52:34;8.60;;;4.75;;
5811;SDS011;2932;52.400;9.558;2023-08-01T07:55:00;7.53;;;4.38;;
5811;SDS011;2932;52.400;9.558;2023-08-01T07:57:25;6.80;;;4.10;;
5811;SDS011;2932;52.400;9.558;2023-08-01T07:59:50;6.95;;;4.03;;
5811;SDS011;2932;52.400;9.558;2023-08-01T08:02:16;11.10;;;4.38;;
5811;SDS011;2932;52.400;9.558;2023-08-01T08:04:41;6.38;;;4.15;;
5811;SDS011;2932;52.400;9.558;2023-08-01T08:07:06;6.35;;;4.35;;
5811;SDS011;2932;52.400;9.558;2023-08-01T08:09:31;9.40;;;4.22;;
5811;SDS011;2932;52.400;9.558;2023-08-01T08:11:57;7.75;;;4.05;;
5811;SDS011;2932;52.400;9.558;2023-08-01T08:14:22;5.43;;;3.38;;
5811;SDS011;2932;52.400;9.558;2023-08-01T08:16:48;12.82;;;3.97;;
5811;SDS011;2932;52.400;9.558;2023-08-01T08:19:14;7.72;;;3.92;;
5811;SDS011;2932;52.400;9.558;2023-08-01T08:21:40;6.88;;;3.53;;
5811;SDS011;2932;52.400;9.558;2023-08-01T08:24:05;5.97;;;3.70;;
5811;SDS011;2932;52.400;9.558;2023-08-01T08:26:31;5.13;;;3.33;;
5811;SDS011;2932;52.400;9.558;2023-08-01T08:28:58;6.55;;;4.00;;
5811;SDS011;2932;52.400;9.558;2023-08-01T08:31:24;6.78;;;2.75;;
5811;SDS011;2932;52.400;9.558;2023-08-01T08:33:49;5.20;;;2.90;;
5811;SDS011;2932;52.400;9.558;2023-08-01T08:36:15;4.28;;;1.80;;
5811;SDS011;2932;52.400;9.558;2023-08-01T08:38:40;2.70;;;2.05;;
5811;SDS011;2932;52.400;9.558;2023-08-01T08:41:09;4.40;;;1.98;;
5811;SDS011;2932;52.400;9.558;2023-08-01T08:43:35;2.47;;;1.92;;
5811;SDS011;2932;52.400;9.558;2023-08-01T08:46:02;9.10;;;2.78;;
5811;SDS011;2932;52.400;9.558;2023-08-01T08:48:28;3.60;;;2.38;;
5811;SDS011;2932;52.400;9.558;2023-08-01T08:50:55;8.10;;;2.80;;
5811;SDS011;2932;52.400;9.558;2023-08-01T08:53:22;5.82;;;2.97;;
5811;SDS011;2932;52.400;9.558;2023-08-01T08:55:48;4.53;;;2.92;;
5811;SDS011;2932;52.400;9.558;2023-08-01T08:58:13;5.43;;;2.65;;
5811;SDS011;2932;52.400;9.558;2023-08-01T09:00:40;4.90;;;2.42;;
5811;SDS011;2932;52.400;9.558;2023-08-01T09:03:06;6.28;;;3.60;;
5811;SDS011;2932;52.400;9.558;2023-08-01T09:05:39;4.88;;;2.22;;
5811;SDS011;2932;52.400;9.558;2023-08-01T09:08:15;6.88;;;2.65;;
5811;SDS011;2932;52.400;9.558;2023-08-01T09:10:43;5.38;;;3.00;;
5811;SDS011;2932;52.400;9.558;2023-08-01T09:13:09;4.47;;;2.63;;
5811;SDS011;2932;52.400;9.558;2023-08-01T09:15:34;3.67;;;2.47;;
5811;SDS011;2932;52.400;9.558;2023-08-01T09:18:05;4.68;;;2.20;;
5811;SDS011;2932;52.400;9.558;2023-08-01T09:20:44;5.75;;;2.10;;
5811;SDS011;2932;52.400;9.558;2023-08-01T09:23:13;5.10;;;1.92;;
5811;SDS011;2932;52.400;9.558;2023-08-01T09:25:40;6.78;;;1.92;;
5811;SDS011;2932;52.400;9.558;2023-08-01T09:28:22;4.20;;;2.05;;
5811;SDS011;2932;52.400;9.558;2023-08-01T09:30:49;4.63;;;1.90;;
5811;SDS011;2932;52.400;9.558;2023-08-01T09:33:20;5.75;;;1.88;;
5811;SDS011;2932;52.400;9.558;2023-08-01T09:35:47;6.50;;;2.10;;
5811;SDS011;2932;52.400;9.558;2023-08-01T09:38:14;3.50;;;2.00;;
5811;SDS011;2932;52.400;9.558;2023-08-01T09:40:40;2.35;;;1.70;;
5811;SDS011;2932;52.400;9.558;2023-08-01T09:43:07;6.32;;;2.28;;
5811;SDS011;2932;52.400;9.558;2023-08-01T09:45:32;4.97;;;2.13;;
5811;SDS011;2932;52.400;9.558;2023-08-01T09:47:59;3.83;;;2.00;;
5811;SDS011;2932;52.400;9.558;2023-08-01T09:50:25;4.43;;;1.75;;
5811;SDS011;2932;52.400;9.558;2023-08-01T09:52:50;4.22;;;1.95;;
5811;SDS011;2932;52.400;9.558;2023-08-01T09:55:31;4.50;;;1.70;;
5811;SDS011;2932;52.400;9.558;2023-08-01T09:57:58;3.13;;;1.88;;
5811;SDS011;2932;52.400;9.558;2023-08-01T10:00:28;4.45;;;1.83;;
5811;SDS011;2932;52.400;9.558;2023-08-01T10:02:55;3.08;;;2.03;;
5811;SDS011;2932;52.400;9.558;2023-08-01T10:05:24;3.75;;;1.52;;
5811;SDS011;2932;52.400;9.558;2023-08-01T10:07:51;3.40;;;1.40;;
5811;SDS011;2932;52.400;9.558;2023-08-01T10:10:20;2.80;;;1.55;;
5811;SDS011;2932;52.400;9.558;2023-08-01T10:12:46;3.42;;;1.55;;
5811;SDS011;2932;52.400;9.558;2023-08-01T10:15:14;3.13;;;1.60;;
5811;SDS011;2932;52.400;9.558;2023-08-01T10:17:41;5.07;;;1.95;;
5811;SDS011;2932;52.400;9.558;2023-08-01T10:20:07;2.28;;;1.40;;
5811;SDS011;2932;52.400;9.558;2023-08-01T10:22:33;3.63;;;1.50;;
5811;SDS011;2932;52.400;9.558;2023-08-01T10:24:59;5.00;;;1.50;;
5811;SDS011;2932;52.400;9.558;2023-08-01T10:27:25;3.30;;;1.70;;
5811;SDS011;2932;52.400;9.558;2023-08-01T10:29:57;3.38;;;1.70;;
5811;SDS011;2932;52.400;9.558;2023-08-01T10:32:33;6.07;;;1.95;;
5811;SDS011;2932;52.400;9.558;2023-08-01T10:35:00;3.95;;;1.95;;
5811;SDS011;2932;52.400;9.558;2023-08-01T10:37:44;4.82;;;2.00;;
5811;SDS011;2932;52.400;9.558;2023-08-01T10:40:12;4.35;;;2.20;;
5811;SDS011;2932;52.400;9.558;2023-08-01T10:42:41;5.90;;;2.30;;
5811;SDS011;2932;52.400;9.558;2023-08-01T10:45:16;4.60;;;2.05;;
5811;SDS011;2932;52.400;9.558;2023-08-01T10:47:45;3.90;;;1.55;;
5811;SDS011;2932;52.400;9.558;2023-08-01T10:50:14;2.92;;;1.58;;
5811;SDS011;2932;52.400;9.558;2023-08-01T10:52:40;2.58;;;1.45;;
5811;SDS011;2932;52.400;9.558;2023-08-01T10:55:06;3.88;;;1.52;;
5811;SDS011;2932;52.400;9.558;2023-08-01T10:57:34;3.47;;;1.65;;
5811;SDS011;2932;52.400;9.558;2023-08-01T11:00:00;4.60;;;1.98;;
5811;SDS011;2932;52.400;9.558;2023-08-01T11:02:27;5.10;;;2.25;;
5811;SDS011;2932;52.400;9.558;2023-08-01T11:07:22;4.05;;;1.85;;
5811;SDS011;2932;52.400;9.558;2023-08-01T11:09:48;7.75;;;1.55;;
5811;SDS011;2932;52.400;9.558;2023-08-01T11:12:13;2.97;;;1.67;;
5811;SDS011;2932;52.400;9.558;2023-08-01T11:14:38;3.80;;;1.80;;
5811;SDS011;2932;52.400;9.558;2023-08-01T11:17:04;2.95;;;1.50;;
5811;SDS011;2932;52.400;9.558;2023-08-01T11:19:29;3.50;;;1.63;;
5811;SDS011;2932;52.400;9.558;2023-08-01T11:21:55;3.15;;;1.23;;
5811;SDS011;2932;52.400;9.558;2023-08-01T11:24:22;3.95;;;1.70;;
5811;SDS011;2932;52.400;9.558;2023-08-01T11:26:49;2.38;;;1.23;;
5811;SDS011;2932;52.400;9.558;2023-08-01T11:29:16;3.75;;;1.52;;
5811;SDS011;2932;52.400;9.558;2023-08-01T11:31:52;2.20;;;1.20;;
5811;SDS011;2932;52.400;9.558;2023-08-01T11:34:17;5.90;;;1.90;;
5811;SDS011;2932;52.400;9.558;2023-08-01T11:36:43;2.67;;;1.35;;
5811;SDS011;2932;52.400;9.558;2023-08-01T11:39:11;3.72;;;1.55;;
5811;SDS011;2932;52.400;9.558;2023-08-01T11:41:37;3.22;;;1.40;;
5811;SDS011;2932;52.400;9.558;2023-08-01T11:44:04;2.33;;;1.50;;
5811;SDS011;2932;52.400;9.558;2023-08-01T11:46:33;3.42;;;1.42;;
5811;SDS011;2932;52.400;9.558;2023-08-01T11:49:00;3.40;;;1.90;;
5811;SDS011;2932;52.400;9.558;2023-08-01T11:51:28;1.50;;;1.20;;
5811;SDS011;2932;52.400;9.558;2023-08-01T11:54:00;3.65;;;1.42;;
5811;SDS011;2932;52.400;9.558;2023-08-01T11:56:26;3.55;;;1.55;;
5811;SDS011;2932;52.400;9.558;2023-08-01T11:58:52;4.63;;;2.00;;
5811;SDS011;2932;52.400;9.558;2023-08-01T12:01:17;2.67;;;1.50;;
5811;SDS011;2932;52.400;9.558;2023-08-01T12:03:44;2.88;;;1.58;;
5811;SDS011;2932;52.400;9.558;2023-08-01T12:06:10;2.45;;;1.70;;
5811;SDS011;2932;52.400;9.558;2023-08-01T12:08:38;4.55;;;1.90;;
5811;SDS011;2932;52.400;9.558;2023-08-01T12:11:03;4.40;;;1.95;;
5811;SDS011;2932;52.400;9.558;2023-08-01T12:13:29;3.33;;;1.70;;
5811;SDS011;2932;52.400;9.558;2023-08-01T12:15:56;2.60;;;1.88;;
5811;SDS011;2932;52.400;9.558;2023-08-01T12:18:22;3.30;;;1.70;;
5811;SDS011;2932;52.400;9.558;2023-08-01T12:20:52;2.05;;;1.73;;
5811;SDS011;2932;52.400;9.558;2023-08-01T12:23:17;2.80;;;1.50;;
5811;SDS011;2932;52.400;9.558;2023-08-01T12:25:43;3.10;;;1.77;;
5811;SDS011;2932;52.400;9.558;2023-08-01T12:28:09;4.35;;;2.22;;
5811;SDS011;2932;52.400;9.558;2023-08-01T12:30:35;4.68;;;1.88;;
5811;SDS011;2932;52.400;9.558;2023-08-01T12:33:03;4.00;;;1.90;;
5811;SDS011;2932;52.400;9.558;2023-08-01T12:35:29;6.35;;;1.80;;
5811;SDS011;2932;52.400;9.558;2023-08-01T12:37:54;2.60;;;1.58;;
5811;SDS011;2932;52.400;9.558;2023-08-01T12:40:19;2.45;;;1.60;;
5811;SDS011;2932;52.400;9.558;2023-08-01T12:42:46;2.70;;;1.67;;
5811;SDS011;2932;52.400;9.558;2023-08-01T12:45:11;4.18;;;1.75;;
5811;SDS011;2932;52.400;9.558;2023-08-01T12:47:36;4.20;;;1.80;;
5811;SDS011;2932;52.400;9.558;2023-08-01T12:50:02;1.70;;;1.38;;
5811;SDS011;2932;52.400;9.558;2023-08-01T12:52:27;4.07;;;1.83;;
5811;SDS011;2932;52.400;9.558;2023-08-01T12:54:53;4.97;;;1.70;;
5811;SDS011;2932;52.400;9.558;2023-08-01T12:57:18;3.00;;;1.60;;
5811;SDS011;2932;52.400;9.558;2023-08-01T12:59:43;3.42;;;1.70;;
5811;SDS011;2932;52.400;9.558;2023-08-01T13:02:09;5.63;;;2.20;;
5811;SDS011;2932;52.400;9.558;2023-08-01T13:04:34;3.63;;;1.85;;
5811;SDS011;2932;52.400;9.558;2023-08-01T13:07:00;5.82;;;2.10;;
5811;SDS011;2932;52.400;9.558;2023-08-01T13:09:25;6.95;;;2.50;;
5811;SDS011;2932;52.400;9.558;2023-08-01T13:11:50;5.38;;;2.72;;
5811;SDS011;2932;52.400;9.558;2023-08-01T13:14:16;4.45;;;2.15;;
5811;SDS011;2932;52.400;9.558;2023-08-01T13:16:41;4.55;;;2.40;;
5811;SDS011;2932;52.400;9.558;2023-08-01T13:19:06;3.88;;;2.20;;
5811;SDS011;2932;52.400;9.558;2023-08-01T13:21:32;3.22;;;1.80;;
5811;SDS011;2932;52.400;9.558;2023-08-01T13:23:59;4.22;;;1.73;;
5811;SDS011;2932;52.400;9.558;2023-08-01T13:26:29;3.10;;;1.50;;
5811;SDS011;2932;52.400;9.558;2023-08-01T13:28:54;3.03;;;1.63;;
5811;SDS011;2932;52.400;9.558;2023-08-01T13:31:20;2.90;;;1.50;;
5811;SDS011;2932;52.400;9.558;2023-08-01T13:33:45;2.03;;;1.35;;
5811;SDS011;2932;52.400;9.558;2023-08-01T13:36:10;5.03;;;1.55;;
5811;SDS011;2932;52.400;9.558;2023-08-01T13:38:35;2.97;;;1.30;;
5811;SDS011;2932;52.400;9.558;2023-08-01T13:41:01;1.55;;;1.30;;
5811;SDS011;2932;52.400;9.558;2023-08-01T13:43:26;2.15;;;1.33;;
5811;SDS011;2932;52.400;9.558;2023-08-01T13:45:52;4.88;;;1.23;;
5811;SDS011;2932;52.400;9.558;2023-08-01T13:48:18;4.78;;;1.10;;
5811;SDS011;2932;52.400;9.558;2023-08-01T13:50:43;1.98;;;1.45;;
5811;SDS011;2932;52.400;9.558;2023-08-01T13:53:08;1.95;;;1.05;;
5811;SDS011;2932;52.400;9.558;2023-08-01T13:55:37;3.40;;;1.13;;
5811;SDS011;2932;52.400;9.558;2023-08-01T13:58:02;2.28;;;1.50;;
5811;SDS011;2932;52.400;9.558;2023-08-01T14:00:27;1.10;;;1.00;;
5811;SDS011;2932;52.400;9.558;2023-08-01T14:02:53;2.53;;;1.27;;
5811;SDS011;2932;52.400;9.558;2023-08-01T14:05:18;1.90;;;1.00;;
5811;SDS011;2932;52.400;9.558;2023-08-01T14:07:44;5.97;;;1.30;;
5811;SDS011;2932;52.400;9.558;2023-08-01T14:10:09;2.22;;;1.20;;
5811;SDS011;2932;52.400;9.558;2023-08-01T14:12:34;1.75;;;1.10;;
5811;SDS011;2932;52.400;9.558;2023-08-01T14:15:00;2.33;;;1.38;;
5811;SDS011;2932;52.400;9.558;2023-08-01T14:17:25;3.90;;;1.83;;
5811;SDS011;2932;52.400;9.558;2023-08-01T14:19:50;4.15;;;1.40;;
5811;SDS011;2932;52.400;9.558;2023-08-01T14:22:16;2.35;;;1.10;;
5811;SDS011;2932;52.400;9.558;2023-08-01T14:24:41;3.95;;;1.10;;
5811;SDS011;2932;52.400;9.558;2023-08-01T14:27:07;3.38;;;1.55;;
5811;SDS011;2932;52.400;9.558;2023-08-01T14:29:33;5.63;;;1.20;;
5811;SDS011;2932;52.400;9.558;2023-08-01T14:31:58;4.97;;;1.00;;
5811;SDS011;2932;52.400;9.558;2023-08-01T14:34:24;3.08;;;1.10;;
5811;SDS011;2932;52.400;9.558;2023-08-01T14:36:49;1.42;;;1.00;;
5811;SDS011;2932;52.400;9.558;2023-08-01T14:39:14;2.03;;;1.45;;
5811;SDS011;2932;52.400;9.558;2023-08-01T14:41:40;2.00;;;1.10;;
5811;SDS011;2932;52.400;9.558;2023-08-01T14:44:05;2.38;;;1.05;;
5811;SDS011;2932;52.400;9.558;2023-08-01T14:46:30;1.83;;;0.90;;
5811;SDS011;2932;52.400;9.558;2023-08-01T14:48:56;3.38;;;0.90;;
5811;SDS011;2932;52.400;9.558;2023-08-01T14:51:21;2.70;;;0.85;;
5811;SDS011;2932;52.400;9.558;2023-08-01T14:53:47;1.80;;;0.98;;
5811;SDS011;2932;52.400;9.558;2023-08-01T14:56:12;2.25;;;0.82;;
5811;SDS011;2932;52.400;9.558;2023-08-01T14:58:37;5.00;;;0.90;;
5811;SDS011;2932;52.400;9.558;2023-08-01T15:01:14;2.90;;;0.85;;
5811;SDS011;2932;52.400;9.558;2023-08-01T15:03:40;1.77;;;0.80;;
5811;SDS011;2932;52.400;9.558;2023-08-01T15:06:06;5.20;;;1.05;;
5811;SDS011;2932;52.400;9.558;2023-08-01T15:08:32;3.10;;;1.25;;
5811;SDS011;2932;52.400;9.558;2023-08-01T15:10:58;2.17;;;1.00;;
5811;SDS011;2932;52.400;9.558;2023-08-01T15:13:28;1.55;;;1.15;;